Pearl Of Scandinavia — OWFU2 — position and weather

sailwx.info

Track history (hours):
 
Tides and Currents Weather Stations Pressure Air Temp Water Temp Dewpoint Dewpoint Depression Visibility Wind Speed Wind Dir Waves Ship Positions

Pearl Of Scandinavia

Last reported at 2014-Jul-29 18:33 UTC. Time now 2014-Jul-29 18:57 UTC.
Position N 56°38' E 012°10'.

Length 176.4 m; beam 34 m; draft 6.215 m.

Type: Ship. MMSI: 219945000.

Date/timePositionNaut miles runAvg speedWind from/ knotsBaromVisibWave heightAir tempDewpointWater temp
2014-Jul-29 18:33N 56°38' E 012°10'1616.2
2014-Jul-29 17:34N 56°23' E 012°21'1616.2
2014-Jul-29 16:34N 56°08' E 012°32'1514.7
2014-Jul-29 15:34N 55°55' E 012°44'1313.4
2014-Jul-29 14:33N 55°42' E 012°37'1 0.6
2014-Jul-29 13:32N 55°42' E 012°36'0 0.0
2014-Jul-29 12:32N 55°42' E 012°36'0 0.0
2014-Jul-29 11:32N 55°42' E 012°36'0 0.0
2014-Jul-29 10:29N 55°42' E 012°36'0 0.0
2014-Jul-29 09:32N 55°42' E 012°36'0 0.0
2014-Jul-29 08:32N 55°42' E 012°36'0 0.3
2014-Jul-29 07:33N 55°42' E 012°36'1211.6
2014-Jul-29 06:33N 55°54' E 012°40'1514.7
2014-Jul-29 05:33N 56°08' E 012°30'1615.9
2014-Jul-29 04:33N 56°22' E 012°19'1716.6
2014-Jul-29 03:32N 56°39' E 012°15'1616.5
2014-Jul-29 02:33N 56°55' E 012°07'1616.4
2014-Jul-29 01:33N 57°10' E 011°56'1716.5
2014-Jul-29 00:33N 57°24' E 011°40'1716.7
2014-Jul-28 23:33N 57°39' E 011°26'1717.1
2014-Jul-28 22:33N 57°55' E 011°14'1716.5
2014-Jul-28 21:33N 58°10' E 011°05'1716.3
2014-Jul-28 20:33N 58°26' E 010°55'1616.4
2014-Jul-28 19:33N 58°42' E 010°47'1716.8
2014-Jul-28 18:33N 58°58' E 010°42'1716.6
2014-Jul-28 17:33N 59°15' E 010°37'1616.0
2014-Jul-28 16:33N 59°31' E 010°35'2214.4
2014-Jul-28 15:03N 59°52' E 010°38'4 7.3
2014-Jul-28 14:33N 59°54' E 010°45'0 0.0
2014-Jul-28 13:29N 59°54' E 010°45'0 0.0
2014-Jul-28 12:32N 59°54' E 010°45'0 0.0
2014-Jul-28 11:17N 59°54' E 010°45'0 0.0
2014-Jul-28 10:32N 59°54' E 010°45'0 0.0
2014-Jul-28 09:32N 59°54' E 010°45'0 0.0
2014-Jul-28 08:20N 59°54' E 010°45'0 0.1
2014-Jul-28 07:33N 59°54' E 010°45'2713.3
2014-Jul-28 05:32N 59°28' E 010°34'1616.4
2014-Jul-28 04:33N 59°12' E 010°39'1616.3
2014-Jul-28 03:33N 58°55' E 010°43'5315.9
2014-Jul-28 00:14N 58°04' E 011°08'1116.2
2014-Jul-27 23:33N 57°54' E 011°14'1616.0
2014-Jul-27 22:33N 57°39' E 011°23'1616.0
2014-Jul-27 21:33N 57°23' E 011°32'1616.2
2014-Jul-27 20:33N 57°08' E 011°41'1615.9
2014-Jul-27 19:33N 56°53' E 011°52'1616.0
2014-Jul-27 18:33N 56°39' E 012°07'1616.5
2014-Jul-27 17:33N 56°24' E 012°19'1716.7
2014-Jul-27 16:33N 56°09' E 012°31'1616.2
2014-Jul-27 15:33N 55°55' E 012°44'1313.3
2014-Jul-27 14:34N 55°42' E 012°36'0 0.1
2014-Jul-27 13:32N 55°42' E 012°36'0 0.0
2014-Jul-27 12:32N 55°42' E 012°36'0 0.0
2014-Jul-27 11:32N 55°42' E 012°36'0 0.0
2014-Jul-27 10:32N 55°42' E 012°36'0 0.0
2014-Jul-27 09:32N 55°42' E 012°36'0 0.0
2014-Jul-27 08:32N 55°42' E 012°36'0 0.3
2014-Jul-27 07:32N 55°42' E 012°36'1111.1
2014-Jul-27 06:33N 55°53' E 012°40'1413.8
2014-Jul-27 05:33N 56°06' E 012°33'1514.9
2014-Jul-27 04:33N 56°20' E 012°22'1615.4
2014-Jul-27 03:33N 56°35' E 012°16'1615.7
2014-Jul-27 02:32N 56°51' E 012°10'1616.5
2014-Jul-27 01:33N 57°06' E 011°59'1616.5
2014-Jul-27 00:33N 57°20' E 011°44'1716.6
2014-Jul-26 23:33N 57°35' E 011°29'1716.9
2014-Jul-26 22:34N 57°50' E 011°17'1716.7
2014-Jul-26 21:32N 58°06' E 011°07'1616.6
2014-Jul-26 20:33N 58°22' E 010°58'1816.9
2014-Jul-26 19:31N 58°39' E 010°49'1617.0
2014-Jul-26 18:33N 58°55' E 010°43'1615.6
2014-Jul-26 17:33N 59°10' E 010°38'1717.4
2014-Jul-26 16:33N 59°27' E 010°33'1815.3
2014-Jul-26 15:21N 59°46' E 010°33'1012.2
2014-Jul-26 14:31N 59°54' E 010°45'0 0.0
2014-Jul-26 13:31N 59°54' E 010°45'0 0.0
2014-Jul-26 12:31N 59°54' E 010°45'0 0.0
2014-Jul-26 11:19N 59°54' E 010°45'0 0.0
2014-Jul-26 10:25N 59°54' E 010°45'0 0.0
2014-Jul-26 09:22N 59°54' E 010°45'0 0.0
2014-Jul-26 08:25N 59°54' E 010°45'0 0.1
2014-Jul-26 07:33N 59°54' E 010°45'1812.7
2014-Jul-26 06:08N 59°36' E 010°38'916.2
2014-Jul-26 05:33N 59°27' E 010°34'1616.1
2014-Jul-26 04:33N 59°11' E 010°39'1616.1
2014-Jul-26 03:33N 58°55' E 010°36'1616.2
2014-Jul-26 02:33N 58°39' E 010°33'2216.0
2014-Jul-26 01:11N 58°18' E 010°45'1116.7
2014-Jul-26 00:33N 58°08' E 010°52'1616.1
2014-Jul-25 23:34N 57°53' E 011°02'1616.3
2014-Jul-25 22:34N 57°38' E 011°15'1616.1
2014-Jul-25 21:33N 57°25' E 011°31'1616.3
2014-Jul-25 20:33N 57°09' E 011°40'1616.1
2014-Jul-25 19:33N 56°54' E 011°50'1716.5
2014-Jul-25 18:31N 56°40' E 012°07'1616.5
2014-Jul-25 17:33N 56°25' E 012°19'1717.5
2014-Jul-25 16:34N 56°09' E 012°31'1717.2
2014-Jul-25 15:34N 55°54' E 012°44'1212.3
2014-Jul-25 14:33N 55°42' E 012°36'0 0.0
2014-Jul-25 13:31N 55°42' E 012°36'0 0.0
2014-Jul-25 12:31N 55°42' E 012°36'0 0.0
2014-Jul-25 11:31N 55°42' E 012°36'0 0.0
2014-Jul-25 10:31N 55°42' E 012°36'0 0.0
2014-Jul-25 09:31N 55°42' E 012°36'0 0.0
2014-Jul-25 08:31N 55°42' E 012°36'0 0.2
2014-Jul-25 07:32N 55°42' E 012°36'1110.7
2014-Jul-25 06:33N 55°53' E 012°40'1413.9
2014-Jul-25 05:33N 56°06' E 012°33'1515.3
2014-Jul-25 04:33N 56°20' E 012°22'1616.2
2014-Jul-25 03:33N 56°36' E 012°16'1816.8
2014-Jul-25 02:30N 56°53' E 012°09'1616.8
2014-Jul-25 01:32N 57°08' E 011°58'1616.5
2014-Jul-25 00:33N 57°22' E 011°43'1716.9
2014-Jul-24 23:34N 57°37' E 011°28'1716.6
2014-Jul-24 22:33N 57°52' E 011°15'1716.6
2014-Jul-24 21:33N 58°08' E 011°06'1717.1
2014-Jul-24 20:33N 58°24' E 010°57'3417.1
2014-Jul-24 18:33N 58°57' E 010°42'1717.4
2014-Jul-24 17:33N 59°15' E 010°37'1716.8
2014-Jul-24 16:33N 59°31' E 010°35'1514.9
2014-Jul-24 15:32N 59°47' E 010°33'9 9.6
2014-Jul-24 14:33N 59°54' E 010°45'0 0.0
2014-Jul-24 13:30N 59°54' E 010°45'0 0.0
2014-Jul-24 12:33N 59°54' E 010°45'0 0.0
2014-Jul-24 11:21N 59°54' E 010°45'0 0.0
2014-Jul-24 10:33N 59°54' E 010°45'0 0.0
2014-Jul-24 09:24N 59°54' E 010°45'0 0.0
2014-Jul-24 08:27N 59°54' E 010°45'0 0.3
2014-Jul-24 07:33N 59°54' E 010°44'1612.9
2014-Jul-24 06:17N 59°38' E 010°38'1216.1
2014-Jul-24 05:33N 59°26' E 010°34'1716.5
2014-Jul-24 04:33N 59°10' E 010°39'1716.6
2014-Jul-24 03:33N 58°54' E 010°43'5116.9
2014-Jul-24 00:33N 58°05' E 011°08'1717.4
2014-Jul-23 23:33N 57°48' E 011°18'1817.8
2014-Jul-23 22:33N 57°31' E 011°28'1717.3
2014-Jul-23 21:33N 57°15' E 011°37'1717.1
2014-Jul-23 20:33N 56°59' E 011°48'1616.0
2014-Jul-23 19:33N 56°45' E 012°03'1615.8
2014-Jul-23 18:33N 56°31' E 012°16'1616.2
2014-Jul-23 17:33N 56°16' E 012°26'1616.5
2014-Jul-23 16:33N 56°01' E 012°40'1615.6
2014-Jul-23 15:33N 55°46' E 012°41'5 4.5
2014-Jul-23 14:33N 55°42' E 012°36'0 0.0
2014-Jul-23 13:33N 55°42' E 012°36'0 0.0
2014-Jul-23 12:33N 55°42' E 012°36'0 0.0
2014-Jul-23 11:33N 55°42' E 012°36'0 0.0
2014-Jul-23 10:30N 55°42' E 012°36'0 0.0
2014-Jul-23 09:33N 55°42' E 012°36'0 0.0
2014-Jul-23 08:33N 55°42' E 012°36'0 0.2
2014-Jul-23 07:34N 55°42' E 012°36'1211.7
2014-Jul-23 06:33N 55°54' E 012°40'1414.1
2014-Jul-23 05:33N 56°07' E 012°31'1514.9
2014-Jul-23 04:33N 56°21' E 012°22'1615.9
2014-Jul-23 03:33N 56°37' E 012°15'1716.4
2014-Jul-23 02:33N 56°53' E 012°08'1716.4
2014-Jul-23 01:32N 57°08' E 011°57'1515.8
2014-Jul-23 00:33N 57°22' E 011°42'1616.0
2014-Jul-22 23:33N 57°36' E 011°28'1615.8
2014-Jul-22 22:33N 57°50' E 011°16'1616.3
2014-Jul-22 21:33N 58°06' E 011°07'2016.2
2014-Jul-22 20:21N 58°24' E 010°56'2916.2
2014-Jul-22 18:33N 58°53' E 010°44'1716.9
2014-Jul-22 17:33N 59°09' E 010°38'1716.7
2014-Jul-22 16:33N 59°26' E 010°33'2014.9
2014-Jul-22 15:14N 59°46' E 010°33'1014.2
2014-Jul-22 14:33N 59°54' E 010°43'1 0.6
2014-Jul-22 13:27N 59°54' E 010°45'0 0.0
2014-Jul-22 12:33N 59°54' E 010°45'0 0.0
2014-Jul-22 11:30N 59°54' E 010°45'0 0.0
2014-Jul-22 10:33N 59°54' E 010°45'0 0.0
2014-Jul-22 09:33N 59°54' E 010°45'0 0.0
2014-Jul-22 08:33N 59°54' E 010°45'0 0.1
2014-Jul-22 07:33N 59°54' E 010°45'2713.3
2014-Jul-22 05:33N 59°28' E 010°34'1615.9
2014-Jul-22 04:33N 59°12' E 010°38'1615.8
2014-Jul-22 03:33N 58°57' E 010°42'1716.0
2014-Jul-22 02:29N 58°39' E 010°47'2116.9
2014-Jul-22 01:14N 58°19' E 010°59'1217.1
2014-Jul-22 00:33N 58°08' E 011°06'1716.8
2014-Jul-21 23:33N 57°52' E 011°15'1716.5
2014-Jul-21 22:33N 57°37' E 011°25'1716.6
2014-Jul-21 21:33N 57°21' E 011°34'1716.6
2014-Jul-21 20:33N 57°05' E 011°43'416.7
2014-Jul-21 20:18N 57°01' E 011°45'1215.8
2014-Jul-21 19:33N 56°51' E 011°56'1616.0
2014-Jul-21 18:33N 56°36' E 012°10'1615.9
2014-Jul-21 17:33N 56°22' E 012°21'1616.4
2014-Jul-21 16:33N 56°07' E 012°33'1616.0
2014-Jul-21 15:33N 55°52' E 012°45'1111.4
2014-Jul-21 14:33N 55°42' E 012°36'0 0.0
2014-Jul-21 13:31N 55°42' E 012°36'0 0.0
2014-Jul-21 12:31N 55°42' E 012°36'0 0.0
2014-Jul-21 11:31N 55°42' E 012°36'0 0.0
2014-Jul-21 10:31N 55°42' E 012°36'0 0.0
2014-Jul-21 09:31N 55°42' E 012°36'0 0.0
2014-Jul-21 08:31N 55°42' E 012°36'0 0.3
2014-Jul-21 07:33N 55°42' E 012°36'1211.7
2014-Jul-21 06:33N 55°54' E 012°40'1413.9
2014-Jul-21 05:33N 56°07' E 012°31'1515.0
2014-Jul-21 04:33N 56°21' E 012°22'1615.8
2014-Jul-21 03:33N 56°36' E 012°16'1615.8
2014-Jul-21 02:33N 56°52' E 012°09'1616.3
2014-Jul-21 01:33N 57°07' E 011°58'1717.1
2014-Jul-21 00:33N 57°22' E 011°42'1717.1
2014-Jul-20 23:33N 57°37' E 011°27'1817.7
2014-Jul-20 22:33N 57°53' E 011°15'1817.6
2014-Jul-20 21:33N 58°10' E 011°05'4116.9
2014-Jul-20 19:07N 58°50' E 010°45'1017.2
2014-Jul-20 18:33N 58°59' E 010°41'1717.4
2014-Jul-20 17:33N 59°17' E 010°36'1717.2
2014-Jul-20 16:33N 59°34' E 010°37'2014.8
2014-Jul-20 15:13N 59°54' E 010°41'2 3.0
2014-Jul-20 14:33N 59°54' E 010°45'0 0.0
2014-Jul-20 13:29N 59°54' E 010°45'0 0.0
2014-Jul-20 12:29N 59°54' E 010°45'0 0.0
2014-Jul-20 11:29N 59°54' E 010°45'0 0.0
2014-Jul-20 10:29N 59°54' E 010°45'0 0.0
2014-Jul-20 09:32N 59°54' E 010°45'0 0.0
2014-Jul-20 08:17N 59°54' E 010°45'0 0.2
2014-Jul-20 07:33N 59°54' E 010°45'2713.3
2014-Jul-20 05:30N 59°27' E 010°34'1516.2
2014-Jul-20 04:33N 59°12' E 010°39'1716.7
2014-Jul-20 03:33N 58°56' E 010°43'5016.4
2014-Jul-20 00:30N 58°07' E 011°07'1616.7
2014-Jul-19 23:33N 57°52' E 011°16'1615.9
2014-Jul-19 22:33N 57°37' E 011°25'1615.9
2014-Jul-19 21:33N 57°22' E 011°34'1616.4
2014-Jul-19 20:33N 57°06' E 011°42'1716.1
2014-Jul-19 19:28N 56°50' E 011°52'1516.2
2014-Jul-19 18:33N 56°35' E 011°59'  
Track history (hours):
 
Tides and Currents Weather Stations Pressure Air Temp Water Temp Dewpoint Dewpoint Depression Visibility Wind Speed Wind Dir Waves Ship Positions

Pearl Of Scandinavia

Last reported at 2014-Jul-29 18:33 UTC. Time now 2014-Jul-29 18:57 UTC.
Position N 56°38' E 012°10'.

Length 176.4 m; beam 34 m; draft 6.215 m.

Type: Ship. MMSI: 219945000.

Date/timePositionNaut miles runAvg speedWind from/ knotsBaromVisibWave heightAir tempDewpointWater temp
2014-Jul-29 18:33N 56°38' E 012°10'1616.2
2014-Jul-29 17:34N 56°23' E 012°21'1616.2
2014-Jul-29 16:34N 56°08' E 012°32'1514.7
2014-Jul-29 15:34N 55°55' E 012°44'1313.4
2014-Jul-29 14:33N 55°42' E 012°37'1 0.6
2014-Jul-29 13:32N 55°42' E 012°36'0 0.0
2014-Jul-29 12:32N 55°42' E 012°36'0 0.0
2014-Jul-29 11:32N 55°42' E 012°36'0 0.0
2014-Jul-29 10:29N 55°42' E 012°36'0 0.0
2014-Jul-29 09:32N 55°42' E 012°36'0 0.0
2014-Jul-29 08:32N 55°42' E 012°36'0 0.3
2014-Jul-29 07:33N 55°42' E 012°36'1211.6
2014-Jul-29 06:33N 55°54' E 012°40'1514.7
2014-Jul-29 05:33N 56°08' E 012°30'1615.9
2014-Jul-29 04:33N 56°22' E 012°19'1716.6
2014-Jul-29 03:32N 56°39' E 012°15'1616.5
2014-Jul-29 02:33N 56°55' E 012°07'1616.4
2014-Jul-29 01:33N 57°10' E 011°56'1716.5
2014-Jul-29 00:33N 57°24' E 011°40'1716.7
2014-Jul-28 23:33N 57°39' E 011°26'1717.1
2014-Jul-28 22:33N 57°55' E 011°14'1716.5
2014-Jul-28 21:33N 58°10' E 011°05'1716.3
2014-Jul-28 20:33N 58°26' E 010°55'1616.4
2014-Jul-28 19:33N 58°42' E 010°47'1716.8
2014-Jul-28 18:33N 58°58' E 010°42'1716.6
2014-Jul-28 17:33N 59°15' E 010°37'1616.0
2014-Jul-28 16:33N 59°31' E 010°35'2214.4
2014-Jul-28 15:03N 59°52' E 010°38'4 7.3
2014-Jul-28 14:33N 59°54' E 010°45'0 0.0
2014-Jul-28 13:29N 59°54' E 010°45'0 0.0
2014-Jul-28 12:32N 59°54' E 010°45'0 0.0
2014-Jul-28 11:17N 59°54' E 010°45'0 0.0
2014-Jul-28 10:32N 59°54' E 010°45'0 0.0
2014-Jul-28 09:32N 59°54' E 010°45'0 0.0
2014-Jul-28 08:20N 59°54' E 010°45'0 0.1
2014-Jul-28 07:33N 59°54' E 010°45'2713.3
2014-Jul-28 05:32N 59°28' E 010°34'1616.4
2014-Jul-28 04:33N 59°12' E 010°39'1616.3
2014-Jul-28 03:33N 58°55' E 010°43'5315.9
2014-Jul-28 00:14N 58°04' E 011°08'1116.2
2014-Jul-27 23:33N 57°54' E 011°14'1616.0
2014-Jul-27 22:33N 57°39' E 011°23'1616.0
2014-Jul-27 21:33N 57°23' E 011°32'1616.2
2014-Jul-27 20:33N 57°08' E 011°41'1615.9
2014-Jul-27 19:33N 56°53' E 011°52'1616.0
2014-Jul-27 18:33N 56°39' E 012°07'1616.5
2014-Jul-27 17:33N 56°24' E 012°19'1716.7
2014-Jul-27 16:33N 56°09' E 012°31'1616.2
2014-Jul-27 15:33N 55°55' E 012°44'1313.3
2014-Jul-27 14:34N 55°42' E 012°36'0 0.1
2014-Jul-27 13:32N 55°42' E 012°36'0 0.0
2014-Jul-27 12:32N 55°42' E 012°36'0 0.0
2014-Jul-27 11:32N 55°42' E 012°36'0 0.0
2014-Jul-27 10:32N 55°42' E 012°36'0 0.0
2014-Jul-27 09:32N 55°42' E 012°36'0 0.0
2014-Jul-27 08:32N 55°42' E 012°36'0 0.3
2014-Jul-27 07:32N 55°42' E 012°36'1111.1
2014-Jul-27 06:33N 55°53' E 012°40'1413.8
2014-Jul-27 05:33N 56°06' E 012°33'1514.9
2014-Jul-27 04:33N 56°20' E 012°22'1615.4
2014-Jul-27 03:33N 56°35' E 012°16'1615.7
2014-Jul-27 02:32N 56°51' E 012°10'1616.5
2014-Jul-27 01:33N 57°06' E 011°59'1616.5
2014-Jul-27 00:33N 57°20' E 011°44'1716.6
2014-Jul-26 23:33N 57°35' E 011°29'1716.9
2014-Jul-26 22:34N 57°50' E 011°17'1716.7
2014-Jul-26 21:32N 58°06' E 011°07'1616.6
2014-Jul-26 20:33N 58°22' E 010°58'1816.9
2014-Jul-26 19:31N 58°39' E 010°49'1617.0
2014-Jul-26 18:33N 58°55' E 010°43'1615.6
2014-Jul-26 17:33N 59°10' E 010°38'1717.4
2014-Jul-26 16:33N 59°27' E 010°33'1815.3
2014-Jul-26 15:21N 59°46' E 010°33'1012.2
2014-Jul-26 14:31N 59°54' E 010°45'0 0.0
2014-Jul-26 13:31N 59°54' E 010°45'0 0.0
2014-Jul-26 12:31N 59°54' E 010°45'0 0.0
2014-Jul-26 11:19N 59°54' E 010°45'0 0.0
2014-Jul-26 10:25N 59°54' E 010°45'0 0.0
2014-Jul-26 09:22N 59°54' E 010°45'0 0.0
2014-Jul-26 08:25N 59°54' E 010°45'0 0.1
2014-Jul-26 07:33N 59°54' E 010°45'1812.7
2014-Jul-26 06:08N 59°36' E 010°38'916.2
2014-Jul-26 05:33N 59°27' E 010°34'1616.1
2014-Jul-26 04:33N 59°11' E 010°39'1616.1
2014-Jul-26 03:33N 58°55' E 010°36'1616.2
2014-Jul-26 02:33N 58°39' E 010°33'2216.0
2014-Jul-26 01:11N 58°18' E 010°45'1116.7
2014-Jul-26 00:33N 58°08' E 010°52'1616.1
2014-Jul-25 23:34N 57°53' E 011°02'1616.3
2014-Jul-25 22:34N 57°38' E 011°15'1616.1
2014-Jul-25 21:33N 57°25' E 011°31'1616.3
2014-Jul-25 20:33N 57°09' E 011°40'1616.1
2014-Jul-25 19:33N 56°54' E 011°50'1716.5
2014-Jul-25 18:31N 56°40' E 012°07'1616.5
2014-Jul-25 17:33N 56°25' E 012°19'1717.5
2014-Jul-25 16:34N 56°09' E 012°31'1717.2
2014-Jul-25 15:34N 55°54' E 012°44'1212.3
2014-Jul-25 14:33N 55°42' E 012°36'0 0.0
2014-Jul-25 13:31N 55°42' E 012°36'0 0.0
2014-Jul-25 12:31N 55°42' E 012°36'0 0.0
2014-Jul-25 11:31N 55°42' E 012°36'0 0.0
2014-Jul-25 10:31N 55°42' E 012°36'0 0.0
2014-Jul-25 09:31N 55°42' E 012°36'0 0.0
2014-Jul-25 08:31N 55°42' E 012°36'0 0.2
2014-Jul-25 07:32N 55°42' E 012°36'1110.7
2014-Jul-25 06:33N 55°53' E 012°40'1413.9
2014-Jul-25 05:33N 56°06' E 012°33'1515.3
2014-Jul-25 04:33N 56°20' E 012°22'1616.2
2014-Jul-25 03:33N 56°36' E 012°16'1816.8
2014-Jul-25 02:30N 56°53' E 012°09'1616.8
2014-Jul-25 01:32N 57°08' E 011°58'1616.5
2014-Jul-25 00:33N 57°22' E 011°43'1716.9
2014-Jul-24 23:34N 57°37' E 011°28'1716.6
2014-Jul-24 22:33N 57°52' E 011°15'1716.6
2014-Jul-24 21:33N 58°08' E 011°06'1717.1
2014-Jul-24 20:33N 58°24' E 010°57'3417.1
2014-Jul-24 18:33N 58°57' E 010°42'1717.4
2014-Jul-24 17:33N 59°15' E 010°37'1716.8
2014-Jul-24 16:33N 59°31' E 010°35'1514.9
2014-Jul-24 15:32N 59°47' E 010°33'9 9.6
2014-Jul-24 14:33N 59°54' E 010°45'0 0.0
2014-Jul-24 13:30N 59°54' E 010°45'0 0.0
2014-Jul-24 12:33N 59°54' E 010°45'0 0.0
2014-Jul-24 11:21N 59°54' E 010°45'0 0.0
2014-Jul-24 10:33N 59°54' E 010°45'0 0.0
2014-Jul-24 09:24N 59°54' E 010°45'0 0.0
2014-Jul-24 08:27N 59°54' E 010°45'0 0.3
2014-Jul-24 07:33N 59°54' E 010°44'1612.9
2014-Jul-24 06:17N 59°38' E 010°38'1216.1
2014-Jul-24 05:33N 59°26' E 010°34'1716.5
2014-Jul-24 04:33N 59°10' E 010°39'1716.6
2014-Jul-24 03:33N 58°54' E 010°43'5116.9
2014-Jul-24 00:33N 58°05' E 011°08'1717.4
2014-Jul-23 23:33N 57°48' E 011°18'1817.8
2014-Jul-23 22:33N 57°31' E 011°28'1717.3
2014-Jul-23 21:33N 57°15' E 011°37'1717.1
2014-Jul-23 20:33N 56°59' E 011°48'1616.0
2014-Jul-23 19:33N 56°45' E 012°03'1615.8
2014-Jul-23 18:33N 56°31' E 012°16'1616.2
2014-Jul-23 17:33N 56°16' E 012°26'1616.5
2014-Jul-23 16:33N 56°01' E 012°40'1615.6
2014-Jul-23 15:33N 55°46' E 012°41'5 4.5
2014-Jul-23 14:33N 55°42' E 012°36'0 0.0
2014-Jul-23 13:33N 55°42' E 012°36'0 0.0
2014-Jul-23 12:33N 55°42' E 012°36'0 0.0
2014-Jul-23 11:33N 55°42' E 012°36'0 0.0
2014-Jul-23 10:30N 55°42' E 012°36'0 0.0
2014-Jul-23 09:33N 55°42' E 012°36'0 0.0
2014-Jul-23 08:33N 55°42' E 012°36'0 0.2
2014-Jul-23 07:34N 55°42' E 012°36'1211.7
2014-Jul-23 06:33N 55°54' E 012°40'1414.1
2014-Jul-23 05:33N 56°07' E 012°31'1514.9
2014-Jul-23 04:33N 56°21' E 012°22'1615.9
2014-Jul-23 03:33N 56°37' E 012°15'1716.4
2014-Jul-23 02:33N 56°53' E 012°08'1716.4
2014-Jul-23 01:32N 57°08' E 011°57'1515.8
2014-Jul-23 00:33N 57°22' E 011°42'1616.0
2014-Jul-22 23:33N 57°36' E 011°28'1615.8
2014-Jul-22 22:33N 57°50' E 011°16'1616.3
2014-Jul-22 21:33N 58°06' E 011°07'2016.2
2014-Jul-22 20:21N 58°24' E 010°56'2916.2
2014-Jul-22 18:33N 58°53' E 010°44'1716.9
2014-Jul-22 17:33N 59°09' E 010°38'1716.7
2014-Jul-22 16:33N 59°26' E 010°33'2014.9
2014-Jul-22 15:14N 59°46' E 010°33'1014.2
2014-Jul-22 14:33N 59°54' E 010°43'1 0.6
2014-Jul-22 13:27N 59°54' E 010°45'0 0.0
2014-Jul-22 12:33N 59°54' E 010°45'0 0.0
2014-Jul-22 11:30N 59°54' E 010°45'0 0.0
2014-Jul-22 10:33N 59°54' E 010°45'0 0.0
2014-Jul-22 09:33N 59°54' E 010°45'0 0.0
2014-Jul-22 08:33N 59°54' E 010°45'0 0.1
2014-Jul-22 07:33N 59°54' E 010°45'2713.3
2014-Jul-22 05:33N 59°28' E 010°34'1615.9
2014-Jul-22 04:33N 59°12' E 010°38'1615.8
2014-Jul-22 03:33N 58°57' E 010°42'1716.0
2014-Jul-22 02:29N 58°39' E 010°47'2116.9
2014-Jul-22 01:14N 58°19' E 010°59'1217.1
2014-Jul-22 00:33N 58°08' E 011°06'1716.8
2014-Jul-21 23:33N 57°52' E 011°15'1716.5
2014-Jul-21 22:33N 57°37' E 011°25'1716.6
2014-Jul-21 21:33N 57°21' E 011°34'1716.6
2014-Jul-21 20:33N 57°05' E 011°43'416.7
2014-Jul-21 20:18N 57°01' E 011°45'1215.8
2014-Jul-21 19:33N 56°51' E 011°56'1616.0
2014-Jul-21 18:33N 56°36' E 012°10'1615.9
2014-Jul-21 17:33N 56°22' E 012°21'1616.4
2014-Jul-21 16:33N 56°07' E 012°33'1616.0
2014-Jul-21 15:33N 55°52' E 012°45'1111.4
2014-Jul-21 14:33N 55°42' E 012°36'0 0.0
2014-Jul-21 13:31N 55°42' E 012°36'0 0.0
2014-Jul-21 12:31N 55°42' E 012°36'0 0.0
2014-Jul-21 11:31N 55°42' E 012°36'0 0.0
2014-Jul-21 10:31N 55°42' E 012°36'0 0.0
2014-Jul-21 09:31N 55°42' E 012°36'0 0.0
2014-Jul-21 08:31N 55°42' E 012°36'0 0.3
2014-Jul-21 07:33N 55°42' E 012°36'1211.7
2014-Jul-21 06:33N 55°54' E 012°40'1413.9
2014-Jul-21 05:33N 56°07' E 012°31'1515.0
2014-Jul-21 04:33N 56°21' E 012°22'1615.8
2014-Jul-21 03:33N 56°36' E 012°16'1615.8
2014-Jul-21 02:33N 56°52' E 012°09'1616.3
2014-Jul-21 01:33N 57°07' E 011°58'1717.1
2014-Jul-21 00:33N 57°22' E 011°42'1717.1
2014-Jul-20 23:33N 57°37' E 011°27'1817.7
2014-Jul-20 22:33N 57°53' E 011°15'1817.6
2014-Jul-20 21:33N 58°10' E 011°05'4116.9
2014-Jul-20 19:07N 58°50' E 010°45'1017.2
2014-Jul-20 18:33N 58°59' E 010°41'1717.4
2014-Jul-20 17:33N 59°17' E 010°36'1717.2
2014-Jul-20 16:33N 59°34' E 010°37'2014.8
2014-Jul-20 15:13N 59°54' E 010°41'2 3.0
2014-Jul-20 14:33N 59°54' E 010°45'0 0.0
2014-Jul-20 13:29N 59°54' E 010°45'0 0.0
2014-Jul-20 12:29N 59°54' E 010°45'0 0.0
2014-Jul-20 11:29N 59°54' E 010°45'0 0.0
2014-Jul-20 10:29N 59°54' E 010°45'0 0.0
2014-Jul-20 09:32N 59°54' E 010°45'0 0.0
2014-Jul-20 08:17N 59°54' E 010°45'0 0.2
2014-Jul-20 07:33N 59°54' E 010°45'2713.3
2014-Jul-20 05:30N 59°27' E 010°34'1516.2
2014-Jul-20 04:33N 59°12' E 010°39'1716.7
2014-Jul-20 03:33N 58°56' E 010°43'5016.4
2014-Jul-20 00:30N 58°07' E 011°07'1616.7
2014-Jul-19 23:33N 57°52' E 011°16'1615.9
2014-Jul-19 22:33N 57°37' E 011°25'1615.9
2014-Jul-19 21:33N 57°22' E 011°34'1616.4
2014-Jul-19 20:33N 57°06' E 011°42'1716.1
2014-Jul-19 19:28N 56°50' E 011°52'1516.2
2014-Jul-19 18:33N 56°35' E 011°59'  

Dump ship's entire track history